Time;durP1;ratioP1;P1;durP2;ratioP2;P2;SDS_P1;SDS_P2;PMS_P1;PMS_P2;Temp;Humidity;BMP_temperature;BMP_pressure;BME280_temperature;BME280_humidity;BME280_pressure;Samples;Min_cycle;Max_cycle;Signal;HPM_P1;HPM_P2
2021/06/25 00:01:49;;;;;;;3.10;2.80;;;13.50;99.90;;;;;;5030347;28;20037;-79
2021/06/25 00:04:15;;;;;;;3.22;2.92;;;13.50;99.90;;;;;;5048205;28;20034;-79
2021/06/25 00:06:40;;;;;;;3.00;2.72;;;13.30;99.90;;;;;;5030093;28;20093;-78
2021/06/25 00:09:06;;;;;;;3.75;3.30;;;13.20;99.90;;;;;;5048155;28;20072;-79
2021/06/25 00:11:32;;;;;;;4.70;3.10;;;13.30;99.90;;;;;;5047919;28;20026;-78
2021/06/25 00:13:57;;;;;;;3.35;2.90;;;13.30;99.90;;;;;;5046401;28;20029;-79
2021/06/25 00:16:23;;;;;;;4.90;3.33;;;13.30;99.90;;;;;;5046730;28;20056;-79
2021/06/25 00:18:49;;;;;;;5.03;2.95;;;13.30;99.90;;;;;;5046461;28;20032;-78
2021/06/25 00:21:15;;;;;;;3.67;3.38;;;13.30;99.90;;;;;;5047851;28;20025;-79
2021/06/25 00:23:41;;;;;;;5.18;4.03;;;13.30;99.90;;;;;;5047660;28;20043;-79
2021/06/25 00:26:07;;;;;;;4.88;3.88;;;13.20;99.90;;;;;;5029889;28;20437;-79
2021/06/25 00:28:32;;;;;;;6.53;4.03;;;13.10;99.90;;;;;;5047385;28;20036;-78
2021/06/25 00:30:58;;;;;;;5.15;4.63;;;13.10;99.90;;;;;;5047662;28;20048;-78
2021/06/25 00:33:23;;;;;;;5.82;4.85;;;13.00;99.90;;;;;;5046205;28;20069;-78
2021/06/25 00:35:49;;;;;;;5.15;4.75;;;12.90;99.90;;;;;;5046366;28;20042;-78
2021/06/25 00:38:15;;;;;;;5.18;4.60;;;12.80;99.90;;;;;;5047217;28;20028;-78
2021/06/25 00:40:41;;;;;;;5.53;4.97;;;12.80;99.90;;;;;;5047572;28;20021;-79
2021/06/25 00:43:06;;;;;;;7.05;5.90;;;12.60;99.90;;;;;;5047110;28;20034;-78
2021/06/25 00:45:52;;;;;;;7.97;5.93;;;12.60;99.90;;;;;;5047144;28;20080;-78
2021/06/25 00:48:18;;;;;;;6.45;4.82;;;12.60;99.90;;;;;;4992227;28;20065;-78
2021/06/25 00:50:44;;;;;;;5.07;4.65;;;12.60;99.90;;;;;;5005150;28;20039;-78
2021/06/25 00:53:09;;;;;;;5.63;5.07;;;12.60;99.90;;;;;;5005437;28;20069;-78
2021/06/25 00:55:44;;;;;;;5.20;4.70;;;12.60;99.90;;;;;;5016050;28;20145;-78
2021/06/25 00:58:10;;;;;;;6.60;5.07;;;12.60;99.90;;;;;;5025011;28;20033;-78
2021/06/25 01:00:36;;;;;;;7.63;6.65;;;12.60;99.90;;;;;;5024906;28;20057;-78
2021/06/25 01:03:02;;;;;;;6.15;5.20;;;12.50;99.90;;;;;;5008457;28;20032;-78
2021/06/25 01:05:28;;;;;;;6.28;4.72;;;12.40;99.90;;;;;;5024909;28;20053;-78
2021/06/25 01:07:53;;;;;;;8.75;5.63;;;12.40;99.90;;;;;;5024826;28;20096;-78
2021/06/25 01:10:19;;;;;;;5.72;5.20;;;12.40;99.90;;;;;;5025032;28;20034;-78
2021/06/25 01:12:45;;;;;;;6.32;5.60;;;12.40;99.90;;;;;;5008445;28;20085;-78
2021/06/25 01:15:12;;;;;;;7.55;5.00;;;12.40;99.90;;;;;;5024342;28;20029;-78
2021/06/25 01:17:42;;;;;;;8.25;5.97;;;12.40;99.90;;;;;;5024420;28;20080;-79
2021/06/25 01:20:13;;;;;;;6.85;5.93;;;12.30;99.90;;;;;;5008451;28;20120;-78
2021/06/25 01:22:41;;;;;;;5.80;5.22;;;12.30;99.90;;;;;;5024630;28;20041;-79
2021/06/25 01:25:19;;;;;;;6.55;5.85;;;12.30;99.90;;;;;;5020620;28;20037;-78
2021/06/25 01:27:47;;;;;;;7.13;5.78;;;12.20;99.90;;;;;;5026846;28;20129;-79
2021/06/25 01:30:17;;;;;;;8.52;6.43;;;12.10;99.90;;;;;;5009078;28;20440;-79
2021/06/25 01:32:43;;;;;;;8.30;6.40;;;12.00;99.90;;;;;;5009014;28;20052;-79
2021/06/25 01:35:11;;;;;;;7.15;5.97;;;12.00;99.90;;;;;;5008967;28;20358;-79
2021/06/25 01:37:37;;;;;;;8.68;7.28;;;12.00;99.90;;;;;;5009244;28;20037;-79
2021/06/25 01:40:05;;;;;;;7.85;6.97;;;12.00;99.90;;;;;;5025330;28;20057;-79
2021/06/25 01:42:33;;;;;;;7.68;6.75;;;11.90;99.90;;;;;;5026682;28;20435;-79
2021/06/25 01:45:03;;;;;;;7.95;7.03;;;11.80;99.90;;;;;;5008679;28;20050;-79
2021/06/25 01:47:29;;;;;;;8.50;7.43;;;11.70;99.90;;;;;;5026210;28;20064;-79
2021/06/25 01:49:55;;;;;;;8.88;7.40;;;11.70;99.90;;;;;;5025808;28;20022;-79
2021/06/25 01:52:20;;;;;;;8.43;7.35;;;11.60;99.90;;;;;;5008541;28;20037;-78
2021/06/25 01:54:47;;;;;;;8.80;7.00;;;11.60;99.90;;;;;;5026031;28;20026;-78
2021/06/25 01:57:14;;;;;;;7.85;6.95;;;11.50;99.90;;;;;;5027044;28;20563;-79
2021/06/25 01:59:41;;;;;;;8.00;6.88;;;11.50;99.90;;;;;;5045920;28;20026;-78
2021/06/25 02:02:06;;;;;;;8.18;7.30;;;11.50;99.90;;;;;;5027894;28;20055;-79
2021/06/25 02:04:32;;;;;;;10.88;7.78;;;11.50;99.90;;;;;;5044452;28;20034;-79
2021/06/25 02:06:58;;;;;;;12.13;9.98;;;11.60;99.90;;;;;;5045815;28;20048;-79
2021/06/25 02:09:23;;;;;;;16.33;13.38;;;11.60;99.90;;;;;;5045837;28;20447;-79
2021/06/25 02:11:49;;;;;;;17.13;12.18;;;11.60;99.90;;;;;;5028232;28;20033;-78
2021/06/25 02:14:15;;;;;;;18.38;12.57;;;11.60;99.90;;;;;;5045733;28;20030;-79
2021/06/25 02:16:40;;;;;;;15.93;12.25;;;11.50;99.90;;;;;;5027547;28;20572;-79
2021/06/25 02:19:06;;;;;;;14.55;11.35;;;11.50;99.90;;;;;;5045681;28;20482;-78
2021/06/25 02:21:32;;;;;;;14.43;11.25;;;11.50;99.90;;;;;;5028013;28;20044;-79
2021/06/25 02:23:57;;;;;;;16.95;11.65;;;11.40;99.90;;;;;;5044223;28;20029;-79
2021/06/25 02:26:23;;;;;;;15.48;11.65;;;11.40;99.90;;;;;;5027851;28;20030;-79
2021/06/25 02:28:49;;;;;;;14.82;11.90;;;11.40;99.90;;;;;;5045448;28;20132;-79
2021/06/25 02:31:16;;;;;;;16.13;11.15;;;11.30;99.90;;;;;;5027660;28;20040;-79
2021/06/25 02:33:41;;;;;;;15.00;11.70;;;11.30;99.90;;;;;;5044130;28;20068;-79
2021/06/25 02:36:07;;;;;;;16.65;12.30;;;11.30;99.90;;;;;;5045527;28;20025;-78
2021/06/25 02:38:33;;;;;;;13.80;11.10;;;11.20;99.90;;;;;;5045473;28;20472;-78
2021/06/25 02:40:58;;;;;;;16.45;12.57;;;11.20;99.90;;;;;;5045445;28;20052;-79
2021/06/25 02:43:24;;;;;;;20.42;13.13;;;11.20;99.90;;;;;;5027590;28;20033;-79
2021/06/25 02:48:52;;;;;;;14.77;11.18;;;11.10;99.90;;;;;;5043503;28;20287;-79
2021/06/25 02:51:18;;;;;;;16.60;11.65;;;11.10;99.90;;;;;;5044533;28;20223;-79
2021/06/25 02:53:43;;;;;;;14.77;11.82;;;11.10;99.90;;;;;;5028350;28;20029;-79
2021/06/25 02:56:09;;;;;;;16.10;11.73;;;11.00;99.90;;;;;;5011661;28;20033;-78
2021/06/25 02:58:34;;;;;;;14.98;11.60;;;11.10;99.90;;;;;;5027896;28;20057;-79
2021/06/25 03:01:00;;;;;;;16.05;12.00;;;11.00;99.90;;;;;;5044696;28;20034;-79
2021/06/25 03:03:26;;;;;;;15.70;12.02;;;11.00;99.90;;;;;;5049481;28;20372;-79
2021/06/25 03:05:52;;;;;;;16.73;12.07;;;10.80;99.90;;;;;;5031783;28;20030;-79
2021/06/25 03:08:19;;;;;;;18.52;13.70;;;10.80;99.90;;;;;;5049581;28;20033;-79
2021/06/25 03:10:48;;;;;;;17.20;12.82;;;10.70;99.90;;;;;;4988282;28;20471;-78
2021/06/25 03:13:16;;;;;;;15.82;11.68;;;10.70;99.90;;;;;;4967916;29;20044;-78
2021/06/25 03:15:42;;;;;;;17.23;12.52;;;10.60;99.90;;;;;;5050985;28;20035;-79
2021/06/25 03:18:08;;;;;;;15.52;11.70;;;10.60;99.90;;;;;;4967857;28;20036;-79
2021/06/25 03:20:35;;;;;;;15.60;11.77;;;10.60;99.90;;;;;;4967553;28;20110;-78
2021/06/25 03:23:00;;;;;;;16.33;12.00;;;10.60;99.90;;;;;;5034453;28;20027;-79
2021/06/25 03:25:26;;;;;;;18.35;13.45;;;10.60;99.90;;;;;;5050533;28;20060;-79
2021/06/25 03:27:51;;;;;;;15.85;12.30;;;10.50;99.90;;;;;;4967335;28;20027;-78
2021/06/25 03:30:18;;;;;;;16.85;11.98;;;10.40;99.90;;;;;;5050555;28;20031;-77
2021/06/25 03:32:43;;;;;;;16.50;12.18;;;10.40;99.90;;;;;;4967422;28;20240;-78
2021/06/25 03:35:10;;;;;;;20.27;13.90;;;10.40;99.90;;;;;;5033649;28;20059;-79
2021/06/25 03:37:36;;;;;;;16.08;11.60;;;10.40;99.90;;;;;;5033338;28;20043;-77
2021/06/25 03:40:06;;;;;;;18.67;12.60;;;10.30;99.90;;;;;;4966616;28;20115;-78
2021/06/25 03:42:31;;;;;;;15.52;11.52;;;10.30;99.90;;;;;;5050048;28;20035;-78
2021/06/25 03:44:57;;;;;;;14.63;10.80;;;10.30;99.90;;;;;;4966496;28;20095;-78
2021/06/25 03:47:22;;;;;;;16.90;12.48;;;10.40;99.90;;;;;;5018515;28;20045;-78
2021/06/25 03:49:48;;;;;;;17.60;11.68;;;10.40;99.90;;;;;;5050001;28;20025;-78
2021/06/25 03:52:14;;;;;;;16.77;12.00;;;10.50;99.90;;;;;;5050177;28;20068;-78
2021/06/25 03:54:39;;;;;;;19.33;13.13;;;10.40;99.90;;;;;;5013539;28;20052;-78
2021/06/25 03:57:05;;;;;;;18.15;12.55;;;10.40;99.90;;;;;;5031040;28;20477;-78
2021/06/25 03:59:31;;;;;;;17.27;12.50;;;10.40;99.90;;;;;;5066391;28;20040;-78
2021/06/25 04:01:57;;;;;;;18.42;12.90;;;10.30;99.90;;;;;;5067490;28;20033;-79
2021/06/25 04:04:22;;;;;;;18.75;12.77;;;10.30;99.90;;;;;;5049449;28;20051;-78
2021/06/25 04:06:48;;;;;;;17.38;12.77;;;10.40;99.90;;;;;;5066251;28;20043;-79
2021/06/25 04:09:14;;;;;;;17.33;10.30;;;10.40;99.90;;;;;;5066362;28;20029;-79
2021/06/25 04:11:39;;;;;;;16.20;12.40;;;10.50;99.90;;;;;;5065752;28;20094;-79
2021/06/25 04:14:05;;;;;;;16.48;12.52;;;10.60;99.90;;;;;;5048966;28;20060;-79
2021/06/25 04:16:30;;;;;;;15.40;11.38;;;10.70;99.90;;;;;;5032696;28;20043;-79
2021/06/25 04:18:56;;;;;;;18.05;10.55;;;10.70;99.90;;;;;;5049256;28;20040;-79
2021/06/25 04:21:22;;;;;;;17.10;11.77;;;10.80;99.90;;;;;;5065964;28;20032;-78
2021/06/25 04:23:48;;;;;;;16.73;12.38;;;11.00;99.90;;;;;;5049186;28;20093;-79
2021/06/25 04:26:14;;;;;;;17.13;11.95;;;11.20;99.90;;;;;;5065896;28;20037;-79
2021/06/25 04:28:40;;;;;;;16.20;11.77;;;11.30;99.90;;;;;;5049548;28;20032;-79
2021/06/25 04:31:06;;;;;;;15.10;9.82;;;11.40;99.90;;;;;;5067904;28;20033;-79
2021/06/25 04:33:31;;;;;;;17.00;11.82;;;11.60;99.90;;;;;;5032243;28;20059;-79
2021/06/25 04:35:57;;;;;;;14.77;10.50;;;11.80;99.90;;;;;;5065405;28;20028;-79
2021/06/25 04:38:23;;;;;;;19.42;12.63;;;11.90;99.90;;;;;;5032342;28;20059;-79
2021/06/25 04:40:51;;;;;;;16.20;11.38;;;12.10;99.90;;;;;;5065611;28;20112;-79
2021/06/25 04:43:17;;;;;;;17.05;11.38;;;12.20;99.90;;;;;;5065397;28;20029;-79
2021/06/25 04:45:44;;;;;;;17.50;12.43;;;12.50;99.90;;;;;;5066662;28;20029;-79
2021/06/25 04:48:12;;;;;;;21.63;14.43;;;12.60;99.90;;;;;;5066436;28;20044;-79
2021/06/25 04:50:38;;;;;;;16.60;12.30;;;12.70;99.90;;;;;;5045568;28;20037;-80
2021/06/25 04:53:04;;;;;;;18.27;13.45;;;13.00;99.90;;;;;;5066263;28;20029;-79
2021/06/25 04:55:30;;;;;;;18.90;13.45;;;13.10;99.90;;;;;;5048341;28;20083;-79
2021/06/25 04:57:56;;;;;;;13.82;10.93;;;13.30;99.90;;;;;;5066579;28;20025;-80
2021/06/25 05:00:24;;;;;;;12.15;8.93;;;13.40;99.90;;;;;;5066849;28;20052;-80
2021/06/25 05:02:50;;;;;;;17.52;13.52;;;13.60;99.90;;;;;;5048753;28;20029;-81
2021/06/25 05:05:16;;;;;;;17.42;12.20;;;13.80;99.90;;;;;;5048621;28;20043;-81
2021/06/25 05:07:43;;;;;;;19.20;13.25;;;14.10;99.90;;;;;;5066336;28;20021;-81
2021/06/25 05:10:10;;;;;;;19.35;14.02;;;14.10;99.90;;;;;;5048625;28;20427;-81
2021/06/25 05:12:35;;;;;;;15.40;12.25;;;14.20;99.90;;;;;;5064833;28;20052;-81
2021/06/25 05:15:01;;;;;;;21.27;15.63;;;14.30;99.90;;;;;;5066183;28;20024;-81
2021/06/25 05:17:28;;;;;;;19.38;14.35;;;14.40;99.90;;;;;;5064691;28;20045;-81
2021/06/25 05:19:53;;;;;;;20.38;15.05;;;14.50;99.90;;;;;;5048042;28;20033;-81
2021/06/25 05:22:19;;;;;;;19.92;14.48;;;14.60;99.90;;;;;;5048268;28;20068;-80
2021/06/25 05:24:44;;;;;;;17.02;12.90;;;14.40;99.90;;;;;;5042207;28;22489;-80
2021/06/25 05:27:10;;;;;;;19.02;15.02;;;14.40;99.90;;;;;;5027365;28;20371;-80
2021/06/25 05:29:36;;;;;;;18.60;14.55;;;14.30;99.90;;;;;;5045925;28;20097;-81
2021/06/25 05:32:02;;;;;;;20.95;16.38;;;14.20;99.90;;;;;;5045721;28;20121;-81
2021/06/25 05:34:27;;;;;;;19.23;14.90;;;13.90;99.90;;;;;;5045468;28;20021;-80
2021/06/25 05:36:54;;;;;;;16.48;13.63;;;14.00;99.90;;;;;;5045514;28;20095;-80
2021/06/25 05:39:20;;;;;;;20.02;13.07;;;14.00;99.90;;;;;;5045583;28;20093;-80
2021/06/25 05:41:45;;;;;;;17.45;14.27;;;14.00;99.90;;;;;;5045494;28;20037;-80
2021/06/25 05:44:11;;;;;;;14.93;12.20;;;13.60;99.90;;;;;;5044181;28;20057;-81
2021/06/25 05:46:37;;;;;;;16.13;11.68;;;13.60;99.90;;;;;;5044614;28;20049;-81
2021/06/25 05:49:03;;;;;;;19.55;12.48;;;13.80;99.90;;;;;;5044239;28;20120;-81
2021/06/25 05:51:29;;;;;;;16.83;11.90;;;13.80;99.90;;;;;;5033942;28;20087;-81
2021/06/25 05:53:54;;;;;;;15.27;11.25;;;13.70;99.90;;;;;;5043912;28;20068;-80
2021/06/25 05:56:20;;;;;;;16.25;11.77;;;13.90;99.90;;;;;;5043662;28;20105;-79
2021/06/25 05:58:45;;;;;;;16.40;11.90;;;14.00;99.90;;;;;;5027339;28;20030;-81
2021/06/25 06:01:11;;;;;;;17.83;12.32;;;14.10;99.90;;;;;;5041759;28;20430;-81
2021/06/25 06:03:38;;;;;;;18.08;13.50;;;14.10;99.90;;;;;;5047087;28;20033;-81
2021/06/25 06:06:05;;;;;;;16.83;12.20;;;14.00;99.90;;;;;;5065401;28;20039;-81
2021/06/25 06:08:31;;;;;;;18.90;13.50;;;14.20;99.90;;;;;;5047138;28;20100;-80
2021/06/25 06:10:56;;;;;;;16.38;11.27;;;14.40;99.90;;;;;;5047169;28;20076;-81
2021/06/25 06:13:22;;;;;;;13.30;10.45;;;14.50;99.90;;;;;;5046798;28;20052;-81
2021/06/25 06:15:48;;;;;;;15.18;10.60;;;14.80;99.90;;;;;;5046192;28;20029;-79
2021/06/25 06:18:29;;;;;;;16.05;11.10;;;14.90;99.90;;;;;;5031353;28;20444;-79
2021/06/25 06:20:55;;;;;;;14.98;10.38;;;15.00;99.90;;;;;;5044590;28;20109;-79
2021/06/25 06:31:36;;;;;;;10.60;7.45;;;15.20;99.90;;;;;;5044233;28;20045;-80
2021/06/25 06:34:12;;;;;;;8.95;7.32;;;15.20;99.90;;;;;;5044101;28;20109;-79
2021/06/25 06:36:44;;;;;;;14.13;8.70;;;15.30;99.90;;;;;;5044226;28;20045;-79
2021/06/25 06:39:10;;;;;;;9.98;8.05;;;15.30;99.90;;;;;;5043011;28;20037;-77
2021/06/25 06:41:36;;;;;;;9.52;7.95;;;15.30;99.90;;;;;;5044443;28;20034;-80
2021/06/25 06:44:03;;;;;;;10.68;8.63;;;15.30;99.90;;;;;;5044137;28;20052;-79
2021/06/25 06:46:29;;;;;;;8.95;7.63;;;15.50;99.90;;;;;;5026086;28;20049;-79
2021/06/25 06:48:55;;;;;;;11.98;8.68;;;15.70;99.90;;;;;;5026221;28;20033;-79
2021/06/25 06:51:21;;;;;;;10.00;8.48;;;15.50;99.90;;;;;;5044131;28;20044;-78
2021/06/25 06:53:48;;;;;;;12.02;10.15;;;15.60;99.90;;;;;;5044246;28;20148;-78
2021/06/25 06:56:15;;;;;;;9.63;7.68;;;15.60;99.90;;;;;;5063861;28;20228;-79
2021/06/25 06:58:41;;;;;;;10.38;8.35;;;15.80;99.90;;;;;;5063176;28;20040;-79
2021/06/25 07:01:09;;;;;;;8.80;7.03;;;15.90;99.90;;;;;;5043251;28;20021;-79
2021/06/25 07:03:35;;;;;;;9.63;7.93;;;16.20;99.90;;;;;;5041892;28;20457;-79
2021/06/25 07:06:01;;;;;;;11.02;9.35;;;16.10;99.90;;;;;;5042295;28;20026;-79
2021/06/25 07:08:27;;;;;;;10.25;9.13;;;15.90;99.90;;;;;;5043168;28;20038;-79
2021/06/25 07:10:52;;;;;;;11.55;8.52;;;16.10;99.90;;;;;;5044672;28;20051;-79
2021/06/25 07:13:18;;;;;;;9.82;8.23;;;16.00;99.90;;;;;;5044394;28;20030;-79
2021/06/25 07:15:44;;;;;;;12.20;9.07;;;16.00;99.90;;;;;;5044435;28;20041;-79
2021/06/25 07:18:09;;;;;;;14.05;10.90;;;16.20;99.90;;;;;;5026789;28;20033;-79
2021/06/25 07:20:35;;;;;;;11.88;8.70;;;16.00;99.90;;;;;;5043876;28;20026;-79
2021/06/25 07:23:01;;;;;;;12.30;8.60;;;16.40;99.90;;;;;;5044250;28;20481;-79
2021/06/25 07:25:27;;;;;;;12.52;9.27;;;16.80;99.90;;;;;;5044330;28;20034;-80
2021/06/25 07:27:53;;;;;;;10.20;7.50;;;16.90;99.90;;;;;;5044309;28;20393;-80
2021/06/25 07:30:19;;;;;;;13.05;10.00;;;17.30;99.90;;;;;;5043052;28;20025;-79
2021/06/25 07:32:45;;;;;;;18.25;11.85;;;17.80;99.90;;;;;;5043637;28;20048;-79
2021/06/25 07:35:11;;;;;;;13.80;9.77;;;17.60;99.90;;;;;;5042345;28;20120;-79
2021/06/25 07:37:37;;;;;;;11.95;9.35;;;17.40;99.90;;;;;;5026635;28;20055;-79
2021/06/25 07:40:04;;;;;;;13.75;9.95;;;17.30;99.90;;;;;;5044010;28;20036;-79
2021/06/25 07:42:29;;;;;;;11.63;8.48;;;17.60;99.90;;;;;;5043832;28;20037;-79
2021/06/25 07:44:55;;;;;;;10.25;8.30;;;18.10;99.90;;;;;;5026193;28;20032;-79
2021/06/25 07:47:20;;;;;;;10.30;8.25;;;18.50;99.90;;;;;;5026441;28;20083;-79
2021/06/25 07:49:46;;;;;;;12.95;9.65;;;18.70;99.90;;;;;;5030050;28;20038;-79
2021/06/25 07:52:12;;;;;;;13.82;9.52;;;18.30;99.90;;;;;;5032082;28;20053;-79
2021/06/25 07:54:38;;;;;;;12.65;9.05;;;18.40;99.90;;;;;;5025040;28;20026;-79
2021/06/25 07:57:04;;;;;;;16.05;9.57;;;18.30;99.90;;;;;;5010327;28;20080;-79
2021/06/25 07:59:30;;;;;;;16.55;12.02;;;18.10;99.90;;;;;;5027911;28;20022;-79
2021/06/25 08:01:56;;;;;;;17.42;11.15;;;17.80;99.90;;;;;;5010196;28;20037;-79
2021/06/25 08:04:22;;;;;;;14.35;10.85;;;18.10;99.90;;;;;;5009873;28;20044;-79
2021/06/25 08:06:47;;;;;;;15.82;10.27;;;18.30;99.90;;;;;;5026549;28;20038;-79
2021/06/25 08:09:13;;;;;;;14.30;10.32;;;18.20;99.90;;;;;;5010073;28;20030;-79
2021/06/25 08:11:39;;;;;;;14.70;10.68;;;18.10;99.90;;;;;;5009956;28;20030;-79
2021/06/25 08:14:06;;;;;;;12.80;10.45;;;18.30;99.90;;;;;;5009827;28;20036;-79
2021/06/25 08:16:33;;;;;;;14.77;11.57;;;18.40;99.90;;;;;;5009842;28;20046;-79
2021/06/25 08:18:58;;;;;;;12.02;9.48;;;18.70;99.90;;;;;;5009971;28;20045;-78
2021/06/25 08:21:29;;;;;;;12.18;10.10;;;19.10;99.90;;;;;;5009831;28;20046;-79
2021/06/25 08:23:56;;;;;;;11.95;9.48;;;19.00;99.90;;;;;;5026127;28;20038;-79
2021/06/25 08:26:22;;;;;;;15.85;11.82;;;18.70;99.90;;;;;;5027394;28;20090;-79
2021/06/25 08:28:48;;;;;;;14.90;10.38;;;18.40;99.90;;;;;;5027496;28;20037;-79
2021/06/25 08:31:15;;;;;;;13.88;10.43;;;18.50;99.90;;;;;;5027308;28;20073;-79
2021/06/25 08:33:41;;;;;;;14.07;10.75;;;18.40;99.90;;;;;;5027282;28;20053;-78
2021/06/25 08:36:07;;;;;;;14.57;10.15;;;18.50;99.90;;;;;;5009356;28;20429;-78
2021/06/25 08:38:33;;;;;;;13.23;11.65;;;18.40;99.90;;;;;;5027212;28;20033;-78
2021/06/25 08:40:59;;;;;;;16.30;12.65;;;18.30;99.90;;;;;;5009419;28;20065;-79
2021/06/25 08:43:25;;;;;;;12.93;10.82;;;18.20;99.90;;;;;;5026932;28;20038;-78
2021/06/25 08:45:52;;;;;;;16.73;11.85;;;18.50;99.90;;;;;;5027041;28;20040;-79
2021/06/25 08:48:17;;;;;;;14.57;11.95;;;18.50;99.90;;;;;;5020528;28;20045;-79
2021/06/25 08:50:50;;;;;;;15.95;12.68;;;18.50;99.90;;;;;;5028396;28;20125;-78
2021/06/25 08:53:16;;;;;;;14.38;9.43;;;18.80;99.90;;;;;;5028594;28;20031;-79
2021/06/25 08:55:44;;;;;;;17.20;13.43;;;18.90;99.90;;;;;;5046376;28;20331;-78
2021/06/25 08:58:18;;;;;;;16.25;12.82;;;18.80;99.90;;;;;;5046371;28;20037;-78
2021/06/25 09:00:44;;;;;;;14.85;13.25;;;18.80;99.90;;;;;;5046517;28;20113;-79
2021/06/25 09:03:27;;;;;;;17.27;13.30;;;18.80;99.90;;;;;;5046370;28;20029;-79
2021/06/25 09:06:07;;;;;;;16.30;12.82;;;18.90;99.90;;;;;;5046290;28;20088;-78
2021/06/25 09:08:32;;;;;;;18.42;13.63;;;18.60;99.90;;;;;;5046402;28;20044;-79
2021/06/25 09:11:00;;;;;;;16.95;13.15;;;18.60;99.90;;;;;;5046283;28;20481;-78
2021/06/25 09:13:33;;;;;;;16.63;11.93;;;18.70;99.90;;;;;;5046258;28;20497;-79
2021/06/25 09:15:59;;;;;;;13.27;10.20;;;18.80;99.90;;;;;;5045990;28;20040;-79
2021/06/25 09:18:25;;;;;;;17.52;13.35;;;19.00;99.90;;;;;;5046195;28;20056;-78
2021/06/25 09:20:52;;;;;;;14.75;12.88;;;19.00;99.90;;;;;;5046046;28;20025;-79
2021/06/25 09:23:39;;;;;;;16.60;12.70;;;19.30;99.90;;;;;;5061156;28;20033;-79
2021/06/25 09:26:12;;;;;;;16.05;13.02;;;19.40;99.90;;;;;;5045826;28;20050;-78
2021/06/25 09:28:46;;;;;;;18.70;14.43;;;19.60;99.90;;;;;;5045927;28;20112;-79
2021/06/25 09:31:25;;;;;;;15.68;12.13;;;19.70;99.90;;;;;;5045939;28;20082;-78
2021/06/25 09:33:57;;;;;;;17.10;12.88;;;19.80;99.90;;;;;;5045844;28;20034;-79
2021/06/25 09:36:27;;;;;;;14.35;11.35;;;19.40;99.90;;;;;;5045744;28;20041;-78
2021/06/25 09:39:13;;;;;;;14.43;12.50;;;19.60;99.90;;;;;;5031177;28;20038;-78
2021/06/25 09:41:44;;;;;;;15.02;12.07;;;19.70;99.90;;;;;;5037181;28;20045;-78
2021/06/25 09:44:20;;;;;;;16.63;13.00;;;19.60;99.90;;;;;;5065881;28;20036;-78
2021/06/25 09:46:49;;;;;;;16.05;14.00;;;19.50;99.90;;;;;;5062523;28;20052;-78
2021/06/25 09:49:22;;;;;;;18.90;15.35;;;19.20;99.90;;;;;;4967471;28;20043;-78
2021/06/25 09:51:55;;;;;;;16.95;13.23;;;19.10;99.90;;;;;;5035114;28;20029;-78
2021/06/25 09:54:20;;;;;;;15.10;11.20;;;19.30;99.90;;;;;;5030505;28;20033;-78
2021/06/25 10:02:22;;;;;;;12.70;9.27;;;19.40;99.90;;;;;;5030640;28;20118;-78
2021/06/25 10:04:58;;;;;;;14.68;11.25;;;19.50;99.90;;;;;;5030359;28;20415;-78
2021/06/25 10:07:29;;;;;;;16.00;11.82;;;19.40;99.90;;;;;;4964723;29;20027;-78
2021/06/25 10:10:07;;;;;;;16.73;11.77;;;19.40;99.90;;;;;;4964040;28;20027;-78
2021/06/25 10:12:36;;;;;;;16.65;12.10;;;19.30;99.90;;;;;;5030510;28;20038;-78
2021/06/25 10:15:02;;;;;;;11.73;10.52;;;19.50;99.90;;;;;;5030533;28;20039;-78
2021/06/25 10:17:28;;;;;;;15.23;10.63;;;19.70;99.90;;;;;;5047294;28;20062;-78
2021/06/25 10:20:06;;;;;;;15.35;10.90;;;19.80;99.90;;;;;;5030396;28;20039;-78
2021/06/25 10:22:33;;;;;;;11.55;9.18;;;19.80;99.90;;;;;;5030112;28;20084;-78
2021/06/25 10:25:01;;;;;;;14.07;11.65;;;20.10;99.90;;;;;;5046688;28;20471;-78
2021/06/25 10:27:27;;;;;;;13.90;11.75;;;20.10;99.90;;;;;;4964225;28;20043;-78
2021/06/25 10:29:56;;;;;;;13.00;9.50;;;20.10;99.90;;;;;;5030317;28;20066;-78
2021/06/25 10:32:22;;;;;;;14.43;10.88;;;20.40;99.90;;;;;;5046667;28;20058;-78
2021/06/25 10:34:48;;;;;;;13.75;11.32;;;20.20;99.90;;;;;;4964045;28;20099;-78
2021/06/25 10:37:19;;;;;;;16.00;12.75;;;20.20;99.90;;;;;;4963856;28;20047;-78
2021/06/25 10:39:45;;;;;;;11.65;10.40;;;20.30;99.90;;;;;;4964043;28;20031;-78
2021/06/25 10:42:11;;;;;;;11.88;10.35;;;20.50;99.90;;;;;;4964031;28;20039;-78
2021/06/25 10:44:52;;;;;;;13.73;9.85;;;20.60;99.90;;;;;;4963821;28;20032;-80
2021/06/25 10:47:25;;;;;;;14.95;10.75;;;20.50;99.90;;;;;;5001538;28;20063;-79
2021/06/25 10:50:08;;;;;;;9.73;8.73;;;20.80;99.90;;;;;;5064837;28;20040;-79
2021/06/25 10:52:54;;;;;;;13.35;10.30;;;21.00;99.90;;;;;;5028306;28;20037;-78
2021/06/25 10:55:24;;;;;;;15.73;12.27;;;20.80;99.90;;;;;;5053070;28;20049;-78
2021/06/25 10:57:49;;;;;;;;;;;20.30;99.90;;;;;;5046984;28;20056;-78
2021/06/25 11:00:28;;;;;;;10.88;8.48;;;20.70;99.90;;;;;;5046790;28;19976;-78
2021/06/25 11:02:54;;;;;;;11.07;9.27;;;20.90;99.90;;;;;;5063309;28;20059;-78
2021/06/25 11:05:26;;;;;;;11.45;8.60;;;20.70;99.90;;;;;;5046681;28;20049;-78
2021/06/25 11:08:00;;;;;;;11.48;8.38;;;20.60;99.90;;;;;;5046353;28;20037;-79
2021/06/25 11:10:35;;;;;;;12.65;10.75;;;20.60;99.90;;;;;;5025715;28;20029;-78
2021/06/25 11:13:22;;;;;;;12.52;10.32;;;20.20;99.90;;;;;;5041982;28;20106;-78
2021/06/25 11:15:50;;;;;;;16.33;11.65;;;20.00;99.90;;;;;;5044350;28;20033;-78
2021/06/25 11:18:17;;;;;;;9.77;7.95;;;19.60;99.90;;;;;;5026597;28;20033;-78
2021/06/25 11:20:50;;;;;;;15.90;12.32;;;19.70;99.90;;;;;;5044524;28;20025;-78
2021/06/25 11:23:37;;;;;;;16.48;13.70;;;19.20;99.90;;;;;;5028902;28;20037;-79
2021/06/25 11:26:05;;;;;;;12.75;10.57;;;19.30;99.90;;;;;;5037372;28;20037;-79
2021/06/25 11:28:35;;;;;;;17.80;12.90;;;19.70;99.90;;;;;;5028482;28;20038;-79
2021/06/25 11:31:15;;;;;;;14.73;11.27;;;19.40;99.90;;;;;;5044549;28;20389;-78
2021/06/25 11:33:42;;;;;;;11.52;8.40;;;19.70;99.90;;;;;;5048867;28;20205;-78
2021/06/25 11:36:13;;;;;;;8.77;7.88;;;20.10;99.90;;;;;;5048651;28;20466;-78
2021/06/25 11:38:52;;;;;;;13.20;10.40;;;20.50;99.90;;;;;;5048376;28;20052;-78
2021/06/25 11:41:18;;;;;;;14.40;11.50;;;20.60;99.90;;;;;;5048475;28;20120;-78
2021/06/25 11:43:50;;;;;;;9.90;8.77;;;20.50;99.90;;;;;;5048045;28;20393;-78
2021/06/25 11:46:18;;;;;;;12.57;8.73;;;21.20;99.90;;;;;;5006326;28;20050;-78
2021/06/25 11:48:45;;;;;;;11.57;8.40;;;21.50;99.90;;;;;;5039985;28;20053;-78
2021/06/25 11:51:13;;;;;;;11.55;9.82;;;21.80;99.90;;;;;;5055199;28;20081;-78
2021/06/25 11:53:46;;;;;;;13.85;10.10;;;21.80;99.90;;;;;;5065539;28;20071;-79
2021/06/25 11:56:23;;;;;;;8.25;7.28;;;21.50;99.90;;;;;;5049644;28;20048;-79
2021/06/25 11:58:55;;;;;;;10.05;6.68;;;22.10;99.90;;;;;;5047978;28;20093;-78
2021/06/25 12:01:21;;;;;;;15.45;12.57;;;22.00;99.90;;;;;;5048028;28;20029;-78
2021/06/25 12:03:47;;;;;;;12.55;8.73;;;21.50;99.90;;;;;;5047817;28;20164;-79
2021/06/25 12:06:12;;;;;;;10.90;9.68;;;22.30;99.90;;;;;;5047498;28;20093;-79
2021/06/25 12:08:56;;;;;;;10.30;8.23;;;22.50;99.90;;;;;;5030089;28;20033;-78
2021/06/25 12:11:24;;;;;;;12.05;9.07;;;22.50;99.90;;;;;;5047803;28;20117;-79
2021/06/25 12:14:30;;;;;;;10.02;8.98;;;22.50;99.90;;;;;;5047713;28;20056;-79
2021/06/25 12:16:56;;;;;;;8.30;6.95;;;22.50;99.90;;;;;;5038078;28;20057;-79
2021/06/25 12:19:21;;;;;;;14.57;11.25;;;22.40;99.90;;;;;;5042002;28;20033;-79
2021/06/25 12:21:47;;;;;;;11.25;8.75;;;22.00;99.90;;;;;;5047748;28;20056;-79
2021/06/25 12:24:15;;;;;;;9.88;8.48;;;22.10;99.90;;;;;;5047414;28;20036;-81
2021/06/25 12:26:41;;;;;;;11.98;9.45;;;22.60;99.90;;;;;;5047485;28;20030;-81
2021/06/25 12:29:07;;;;;;;10.13;7.93;;;22.70;99.90;;;;;;5047017;28;20092;-79
2021/06/25 12:31:34;;;;;;;9.77;8.25;;;22.90;99.90;;;;;;5047613;28;20041;-80
2021/06/25 12:34:09;;;;;;;8.85;7.82;;;23.20;99.90;;;;;;5046694;28;20030;-79
2021/06/25 12:36:36;;;;;;;9.60;7.43;;;23.00;99.90;;;;;;5047341;28;20049;-79
2021/06/25 12:39:06;;;;;;;7.88;6.95;;;22.90;99.90;;;;;;5047323;28;20025;-79
2021/06/25 12:41:32;;;;;;;;;;;22.80;99.90;;;;;;5047816;28;20059;-79
2021/06/25 12:43:57;;;;;;;9.23;7.47;;;22.80;99.90;;;;;;5047251;28;19909;-80
2021/06/25 12:46:25;;;;;;;9.43;6.53;;;22.40;99.90;;;;;;5025486;28;20054;-80
2021/06/25 12:48:54;;;;;;;9.02;6.93;;;22.60;99.90;;;;;;5011917;28;20494;-80
2021/06/25 12:51:28;;;;;;;12.77;7.03;;;22.60;99.90;;;;;;5049316;28;20025;-81
2021/06/25 12:53:59;;;;;;;8.90;6.07;;;22.70;99.90;;;;;;5028841;28;20108;-79